Keiki Kai — 6YRV3 — position and weather

sailwx.info

Track history (hours):
 
Tides and Currents Weather Stations Pressure Air Temp Water Temp Dewpoint Dewpoint Depression Visibility Wind Speed Wind Dir Waves Ship Positions

Keiki Kai

Last reported at 2018-Jul-11 00:18 UTC. Time now 2018-Jul-22 03:06 UTC.
Position N 25°60' W 079°47'.
Warning: this ship's position is 11 days out of date.

Length 30 m; draft 1.8 m.

Type: Pleasure craft. MMSI: 339354000.

Date/timePositionNaut miles runAvg speedWind from/ knotsBaromVisibWave heightAir tempDewpointWater temp
2018-Jul-11 00:18N 25°60' W 079°47'3 9.8
2018-Jul-11 00:00N 26°01' W 079°50'5 9.8
2018-Jul-10 23:30N 26°03' W 079°56'5 9.8
2018-Jul-10 23:00N 26°05' W 080°00'510.1
2018-Jul-10 22:30N 26°06' W 080°06'1 2.8
2018-Jul-10 22:00N 26°06' W 080°07'1 1.4
2018-Jul-10 21:30N 26°07' W 080°07'0 0.0
2018-Jul-10 21:00N 26°07' W 080°07'0 0.0
2018-Jul-10 20:30N 26°07' W 080°07'0 0.0
2018-Jul-10 20:00N 26°07' W 080°07'0 0.0
2018-Jul-10 19:30N 26°07' W 080°07'0 0.0
2018-Jul-10 19:00N 26°07' W 080°07'0 0.0
2018-Jul-10 18:30N 26°07' W 080°07'0 0.0
2018-Jul-10 18:00N 26°07' W 080°07'0 0.0
2018-Jul-10 17:30N 26°07' W 080°07'0 0.0
2018-Jul-10 17:00N 26°07' W 080°07'0 0.0
2018-Jul-10 16:30N 26°07' W 080°07'0 0.0
2018-Jul-10 16:00N 26°07' W 080°07'0 0.2
2018-Jul-10 15:30N 26°07' W 080°07'2 3.4
2018-Jul-10 15:01N 26°05' W 080°05'0 0.9
2018-Jul-10 14:30N 26°06' W 080°05'2 3.1
2018-Jul-10 14:00N 26°04' W 080°05'3 6.2
2018-Jul-10 13:30N 26°06' W 080°07'1 2.7
2018-Jul-10 13:00N 26°07' W 080°09'1 1.9
2018-Jul-10 12:30N 26°07' W 080°09'1 1.5
2018-Jul-10 11:58N 26°06' W 080°10'0 0.0
2018-Jul-10 11:28N 26°06' W 080°10'0 0.0
2018-Jul-10 10:58N 26°06' W 080°10'0 0.0
2018-Jul-10 10:28N 26°06' W 080°10'0 0.0
2018-Jul-10 09:46N 26°06' W 080°10'0 0.0
2018-Jul-10 09:28N 26°06' W 080°10'0 0.0
2018-Jul-10 08:49N 26°06' W 080°10'0 0.0
2018-Jul-10 08:28N 26°06' W 080°10'0 0.0
2018-Jul-10 07:58N 26°06' W 080°10'0 0.0
2018-Jul-10 07:28N 26°06' W 080°10'0 0.0
2018-Jul-10 06:49N 26°06' W 080°10'0 0.0
2018-Jul-10 06:19N 26°06' W 080°10'0 0.0
2018-Jul-10 05:52N 26°06' W 080°10'0 0.0
2018-Jul-10 05:19N 26°06' W 080°10'0 0.0
2018-Jul-10 04:52N 26°06' W 080°10'0 0.0
2018-Jul-10 04:22N 26°06' W 080°10'0 0.0
2018-Jul-10 03:55N 26°06' W 080°10'0 0.0
2018-Jul-10 03:25N 26°06' W 080°10'0 0.0
2018-Jul-10 02:55N 26°06' W 080°10'0 0.0
2018-Jul-10 02:25N 26°06' W 080°10'0 0.0
2018-Jul-10 01:55N 26°06' W 080°10'0 0.0
2018-Jul-10 01:25N 26°06' W 080°10'0 0.0
2018-Jul-10 00:55N 26°06' W 080°10'0 0.0
2018-Jul-10 00:22N 26°06' W 080°10'0 0.0
2018-Jul-09 23:58N 26°06' W 080°10'0 0.0
2018-Jul-09 23:28N 26°06' W 080°10'0 0.0
2018-Jul-09 22:58N 26°06' W 080°10'0 0.0
2018-Jul-09 22:28N 26°06' W 080°10'0 0.0
2018-Jul-09 21:58N 26°06' W 080°10'0 0.0
2018-Jul-09 21:28N 26°06' W 080°10'0 0.0
2018-Jul-09 20:58N 26°06' W 080°10'0 0.0
2018-Jul-09 20:28N 26°06' W 080°10'0 0.0
2018-Jul-09 19:58N 26°06' W 080°10'0 0.0
2018-Jul-09 19:28N 26°06' W 080°10'0 0.0
2018-Jul-09 18:58N 26°06' W 080°10'0 0.0
2018-Jul-09 18:16N 26°06' W 080°10'0 0.0
2018-Jul-09 17:58N 26°06' W 080°10'0 0.0
2018-Jul-09 17:28N 26°06' W 080°10'0 0.0
2018-Jul-09 16:49N 26°06' W 080°10'0 0.0
2018-Jul-09 16:19N 26°06' W 080°10'0 0.0
2018-Jul-09 15:49N 26°06' W 080°10'0 0.0
2018-Jul-09 15:22N 26°06' W 080°10'0 0.0
2018-Jul-09 14:52N 26°06' W 080°10'0 0.0
2018-Jul-09 14:22N 26°06' W 080°10'0 0.0
2018-Jul-09 13:52N 26°06' W 080°10'0 0.0
2018-Jul-09 13:22N 26°06' W 080°10'  
2018-Jul-06 22:21N 26°06' W 080°10'0 0.0
2018-Jul-06 21:54N 26°06' W 080°10'0 0.0
2018-Jul-06 21:24N 26°06' W 080°10'0 0.0
2018-Jul-06 20:54N 26°06' W 080°10'0 0.0
2018-Jul-06 20:24N 26°06' W 080°10'0 0.0
2018-Jul-06 19:54N 26°06' W 080°10'0 0.0
2018-Jul-06 19:27N 26°06' W 080°10'0 0.0
2018-Jul-06 18:57N 26°06' W 080°10'0 0.0
2018-Jul-06 18:27N 26°06' W 080°10'0 0.0
2018-Jul-06 17:57N 26°06' W 080°10'0 0.0
2018-Jul-06 17:24N 26°06' W 080°10'0 0.0
2018-Jul-06 16:57N 26°06' W 080°10'0 0.0
2018-Jul-06 16:30N 26°06' W 080°10'0 0.0
2018-Jul-06 15:57N 26°06' W 080°10'0 0.0
2018-Jul-06 15:30N 26°06' W 080°10'0 0.0
2018-Jul-06 15:00N 26°06' W 080°10'0 0.0
2018-Jul-06 14:27N 26°06' W 080°10'0 0.0
2018-Jul-06 14:00N 26°06' W 080°10'0 0.0
2018-Jul-06 13:30N 26°06' W 080°10'0 0.0
2018-Jul-06 13:00N 26°06' W 080°10'0 0.0
2018-Jul-06 12:30N 26°06' W 080°10'0 0.0
2018-Jul-06 11:48N 26°06' W 080°10'0 0.0
2018-Jul-06 11:30N 26°06' W 080°10'0 0.0
2018-Jul-06 11:00N 26°06' W 080°10'0 0.0
2018-Jul-06 10:30N 26°06' W 080°10'0 0.0
2018-Jul-06 10:00N 26°06' W 080°10'0 0.0
2018-Jul-06 09:30N 26°06' W 080°10'0 0.0
2018-Jul-06 09:00N 26°06' W 080°10'0 0.0
2018-Jul-06 08:21N 26°06' W 080°10'0 0.0
2018-Jul-06 07:54N 26°06' W 080°10'0 0.0
2018-Jul-06 07:24N 26°06' W 080°10'0 0.0
2018-Jul-06 06:54N 26°06' W 080°10'0 0.0
2018-Jul-06 06:24N 26°06' W 080°10'0 0.0
2018-Jul-06 05:54N 26°06' W 080°10'0 0.0
2018-Jul-06 05:24N 26°06' W 080°10'0 0.0
2018-Jul-06 04:51N 26°06' W 080°10'0 0.0
2018-Jul-06 04:27N 26°06' W 080°10'0 0.0
2018-Jul-06 03:57N 26°06' W 080°10'0 0.0
2018-Jul-06 03:24N 26°06' W 080°10'0 0.0
2018-Jul-06 02:57N 26°06' W 080°10'0 0.0
2018-Jul-06 02:27N 26°06' W 080°10'0 0.0
2018-Jul-06 01:54N 26°06' W 080°10'0 0.0
2018-Jul-06 01:27N 26°06' W 080°10'0 0.0
2018-Jul-06 01:00N 26°06' W 080°10'0 0.0
2018-Jul-06 00:27N 26°06' W 080°10'0 0.0
2018-Jul-06 00:00N 26°06' W 080°10'0 0.0
2018-Jul-05 23:30N 26°06' W 080°10'0 0.0
2018-Jul-05 23:00N 26°06' W 080°10'0 0.0
2018-Jul-05 22:30N 26°06' W 080°10'0 0.0
2018-Jul-05 22:00N 26°06' W 080°10'0 0.0
2018-Jul-05 21:30N 26°06' W 080°10'0 0.0
2018-Jul-05 21:00N 26°06' W 080°10'0 0.0
2018-Jul-05 20:30N 26°06' W 080°10'0 0.0
2018-Jul-05 20:00N 26°06' W 080°10'0 0.0
2018-Jul-05 19:30N 26°06' W 080°10'0 0.0
2018-Jul-05 19:00N 26°06' W 080°10'0 0.0
2018-Jul-05 18:30N 26°06' W 080°10'0 0.0
2018-Jul-05 18:00N 26°06' W 080°10'0 0.0
2018-Jul-05 17:30N 26°06' W 080°10'0 0.0
2018-Jul-05 16:51N 26°06' W 080°10'0 0.0
2018-Jul-05 16:21N 26°06' W 080°10'0 0.0
2018-Jul-05 15:54N 26°06' W 080°10'0 0.0
2018-Jul-05 15:24N 26°06' W 080°10'0 0.0
2018-Jul-05 14:54N 26°06' W 080°10'0 0.0
2018-Jul-05 14:24N 26°06' W 080°10'0 0.0
2018-Jul-05 13:24N 26°06' W 080°10'0 0.0
2018-Jul-05 12:54N 26°06' W 080°10'0 0.0
2018-Jul-05 12:27N 26°06' W 080°10'0 0.0
2018-Jul-05 11:57N 26°06' W 080°10'0 0.0
2018-Jul-05 11:27N 26°06' W 080°10'0 0.0
2018-Jul-05 11:00N 26°06' W 080°10'0 0.0
2018-Jul-05 10:27N 26°06' W 080°10'0 0.0
2018-Jul-05 10:00N 26°06' W 080°10'0 0.0
2018-Jul-05 09:30N 26°06' W 080°10'0 0.0
2018-Jul-05 09:00N 26°06' W 080°10'0 0.0
2018-Jul-05 08:30N 26°06' W 080°10'0 0.0
2018-Jul-05 07:45N 26°06' W 080°10'0 0.0
2018-Jul-05 07:30N 26°06' W 080°10'0 0.0
2018-Jul-05 07:00N 26°06' W 080°10'0 0.0
2018-Jul-05 06:30N 26°06' W 080°10'0 0.0
2018-Jul-05 06:00N 26°06' W 080°10'0 0.0
2018-Jul-05 05:30N 26°06' W 080°10'0 0.0
2018-Jul-05 04:48N 26°06' W 080°10'0 0.0
2018-Jul-05 04:30N 26°06' W 080°10'0 0.0
2018-Jul-05 04:00N 26°06' W 080°10'0 0.0
2018-Jul-05 03:21N 26°06' W 080°10'0 0.0
2018-Jul-05 03:00N 26°06' W 080°10'0 0.0
2018-Jul-05 02:21N 26°06' W 080°10'0 0.0
2018-Jul-05 01:48N 26°06' W 080°10'0 0.0
2018-Jul-05 01:24N 26°06' W 080°10'0 0.0
2018-Jul-05 00:54N 26°06' W 080°10'0 0.0
2018-Jul-05 00:21N 26°06' W 080°10'0 0.0
2018-Jul-04 23:39N 26°06' W 080°10'0 0.0
2018-Jul-04 23:24N 26°06' W 080°10'0 0.0
2018-Jul-04 22:54N 26°06' W 080°10'0 0.0
2018-Jul-04 22:27N 26°06' W 080°10'0 0.0
2018-Jul-04 21:57N 26°06' W 080°10'0 0.0
2018-Jul-04 21:27N 26°06' W 080°10'0 0.0
2018-Jul-04 20:57N 26°06' W 080°10'0 0.0
2018-Jul-04 20:27N 26°06' W 080°10'0 0.0
2018-Jul-04 19:57N 26°06' W 080°10'0 0.0
2018-Jul-04 19:30N 26°06' W 080°10'0 0.0
2018-Jul-04 19:00N 26°06' W 080°10'0 0.0
2018-Jul-04 18:30N 26°06' W 080°10'0 0.0
2018-Jul-04 18:00N 26°06' W 080°10'0 0.0
2018-Jul-04 17:30N 26°06' W 080°10'0 0.0
2018-Jul-04 17:00N 26°06' W 080°10'0 0.0
2018-Jul-04 16:30N 26°06' W 080°10'0 0.0
2018-Jul-04 16:00N 26°06' W 080°10'0 0.0
2018-Jul-04 15:30N 26°06' W 080°10'0 0.0
2018-Jul-04 15:00N 26°06' W 080°10'0 0.0
2018-Jul-04 14:30N 26°06' W 080°10'0 0.0
2018-Jul-04 14:00N 26°06' W 080°10'0 0.0
2018-Jul-04 13:30N 26°06' W 080°10'0 0.0
2018-Jul-04 13:00N 26°06' W 080°10'0 0.0
2018-Jul-04 12:30N 26°06' W 080°10'0 0.0
2018-Jul-04 12:00N 26°06' W 080°10'0 0.0
2018-Jul-04 11:30N 26°06' W 080°10'0 0.0
2018-Jul-04 10:51N 26°06' W 080°10'0 0.0
2018-Jul-04 10:21N 26°06' W 080°10'0 0.0
2018-Jul-04 09:54N 26°06' W 080°10'0 0.0
2018-Jul-04 09:24N 26°06' W 080°10'0 0.0
2018-Jul-04 08:51N 26°06' W 080°10'0 0.0
2018-Jul-04 08:24N 26°06' W 080°10'0 0.0
2018-Jul-04 07:54N 26°06' W 080°10'0 0.0
2018-Jul-04 07:27N 26°06' W 080°10'0 0.0
2018-Jul-04 06:57N 26°06' W 080°10'0 0.0
2018-Jul-04 06:27N 26°06' W 080°10'0 0.0
2018-Jul-04 05:57N 26°06' W 080°10'0 0.0
2018-Jul-04 05:27N 26°06' W 080°10'0 0.0
2018-Jul-04 05:00N 26°06' W 080°10'0 0.0
2018-Jul-04 04:24N 26°06' W 080°10'0 0.0
2018-Jul-04 03:57N 26°06' W 080°10'0 0.0
2018-Jul-04 03:30N 26°06' W 080°10'0 0.0
2018-Jul-04 03:00N 26°06' W 080°10'0 0.0
2018-Jul-04 02:30N 26°06' W 080°10'0 0.0
2018-Jul-04 02:00N 26°06' W 080°10'0 0.0
2018-Jul-04 01:30N 26°06' W 080°10'0 0.0
2018-Jul-04 00:57N 26°06' W 080°10'0 0.0
2018-Jul-04 00:30N 26°06' W 080°10'0 0.0
2018-Jul-04 00:00N 26°06' W 080°10'0 0.0
2018-Jul-03 23:30N 26°06' W 080°10'0 0.0
2018-Jul-03 23:00N 26°06' W 080°10'0 0.0
2018-Jul-03 22:30N 26°06' W 080°10'0 0.0
2018-Jul-03 22:00N 26°06' W 080°10'0 0.0
2018-Jul-03 21:30N 26°06' W 080°10'0 0.0
2018-Jul-03 21:00N 26°06' W 080°10'0 0.0
2018-Jul-03 20:21N 26°06' W 080°10'0 0.0
2018-Jul-03 19:51N 26°06' W 080°10'0 0.0
2018-Jul-03 19:21N 26°06' W 080°10'0 0.0
2018-Jul-03 18:54N 26°06' W 080°10'0 0.0
2018-Jul-03 18:24N 26°06' W 080°10'0 0.0
2018-Jul-03 17:54N 26°06' W 080°10'0 0.0
2018-Jul-03 17:24N 26°06' W 080°10'0 0.0
2018-Jul-03 16:54N 26°06' W 080°10'0 0.0
2018-Jul-03 16:24N 26°06' W 080°10'0 0.0
2018-Jul-03 15:42N 26°06' W 080°10'0 0.0
2018-Jul-03 15:27N 26°06' W 080°10'0 0.0
2018-Jul-03 14:57N 26°06' W 080°10'0 0.0
2018-Jul-03 14:27N 26°06' W 080°10'0 0.0
2018-Jul-03 14:00N 26°06' W 080°10'0 0.0
2018-Jul-03 13:30N 26°06' W 080°10'0 0.0
2018-Jul-03 13:00N 26°06' W 080°10'0 0.0
2018-Jul-03 12:30N 26°06' W 080°10'0 0.0
2018-Jul-03 12:00N 26°06' W 080°10'0 0.0
2018-Jul-03 11:30N 26°06' W 080°10'0 0.0
2018-Jul-03 10:57N 26°06' W 080°10'0 0.0
2018-Jul-03 10:30N 26°06' W 080°10'0 0.0
2018-Jul-03 10:00N 26°06' W 080°10'0 0.0
2018-Jul-03 09:30N 26°06' W 080°10'0 0.0
2018-Jul-03 09:00N 26°06' W 080°10'0 0.0
2018-Jul-03 08:30N 26°06' W 080°10'0 0.0
2018-Jul-03 08:00N 26°06' W 080°10'0 0.0
2018-Jul-03 07:30N 26°06' W 080°10'0 0.0
2018-Jul-03 07:00N 26°06' W 080°10'0 0.0
2018-Jul-03 06:30N 26°06' W 080°10'0 0.0
2018-Jul-03 06:00N 26°06' W 080°10'0 0.0
2018-Jul-03 05:21N 26°06' W 080°10'0 0.0
2018-Jul-03 04:54N 26°06' W 080°10'0 0.0
2018-Jul-03 04:24N 26°06' W 080°10'0 0.0
2018-Jul-03 03:54N 26°06' W 080°10'0 0.0
2018-Jul-03 03:24N 26°06' W 080°10'0 0.0
2018-Jul-03 02:57N 26°06' W 080°10'0 0.0
2018-Jul-03 02:24N 26°06' W 080°10'0 0.0
2018-Jul-03 01:54N 26°06' W 080°10'0 0.0
2018-Jul-03 01:24N 26°06' W 080°10'0 0.0
2018-Jul-03 00:57N 26°06' W 080°10'0 0.0
2018-Jul-03 00:27N 26°06' W 080°10'0 0.0
2018-Jul-02 23:57N 26°06' W 080°10'0 0.0
2018-Jul-02 23:27N 26°06' W 080°10'0 0.0
2018-Jul-02 22:54N 26°06' W 080°10'0 0.0
2018-Jul-02 22:30N 26°06' W 080°10'0 0.0
2018-Jul-02 21:57N 26°06' W 080°10'0 0.0
2018-Jul-02 21:30N 26°06' W 080°10'0 0.0
2018-Jul-02 21:00N 26°06' W 080°10'0 0.0
2018-Jul-02 20:30N 26°06' W 080°10'0 0.0
2018-Jul-02 20:00N 26°06' W 080°10'0 0.0
2018-Jul-02 19:30N 26°06' W 080°10'0 0.0
2018-Jul-02 19:00N 26°06' W 080°10'0 0.0
2018-Jul-02 18:30N 26°06' W 080°10'0 0.0
2018-Jul-02 18:00N 26°06' W 080°10'0 0.0
2018-Jul-02 17:30N 26°06' W 080°10'0 0.0
2018-Jul-02 17:00N 26°06' W 080°10'0 0.0
2018-Jul-02 16:30N 26°06' W 080°10'0 0.0
2018-Jul-02 15:48N 26°06' W 080°10'0 0.0
2018-Jul-02 15:21N 26°06' W 080°10'0 0.0
2018-Jul-02 14:51N 26°06' W 080°10'0 0.0
2018-Jul-02 14:21N 26°06' W 080°10'0 0.0
2018-Jul-02 13:54N 26°06' W 080°10'0 0.0
2018-Jul-02 13:24N 26°06' W 080°10'0 0.0
2018-Jul-02 12:54N 26°06' W 080°10'0 0.0
2018-Jul-02 12:24N 26°06' W 080°10'0 0.0
2018-Jul-02 11:51N 26°06' W 080°10'0 0.0
2018-Jul-02 11:24N 26°06' W 080°10'0 0.0
2018-Jul-02 10:57N 26°06' W 080°10'0 0.0
2018-Jul-02 10:24N 26°06' W 080°10'0 0.0
2018-Jul-02 09:57N 26°06' W 080°10'0 0.0
2018-Jul-02 09:27N 26°06' W 080°10'0 0.0
2018-Jul-02 08:57N 26°06' W 080°10'0 0.0
2018-Jul-02 08:30N 26°06' W 080°10'0 0.0
2018-Jul-02 08:00N 26°06' W 080°10'0 0.0
2018-Jul-02 07:30N 26°06' W 080°10'0 0.0
2018-Jul-02 07:00N 26°06' W 080°10'0 0.0
2018-Jul-02 06:30N 26°06' W 080°10'0 0.0
2018-Jul-02 06:00N 26°06' W 080°10'0 0.0
2018-Jul-02 05:27N 26°06' W 080°10'0 0.0
2018-Jul-02 05:00N 26°06' W 080°10'0 0.0
2018-Jul-02 04:30N 26°06' W 080°10'0 0.0
2018-Jul-02 04:00N 26°06' W 080°10'0 0.0
2018-Jul-02 03:30N 26°06' W 080°10'0 0.0
2018-Jul-02 03:00N 26°06' W 080°10'0 0.0
2018-Jul-02 02:30N 26°06' W 080°10'0 0.0
2018-Jul-02 01:51N 26°06' W 080°10'0 0.0
2018-Jul-02 01:30N 26°06' W 080°10'0 0.0
2018-Jul-02 01:00N 26°06' W 080°10'0 0.0
2018-Jul-02 00:30N 26°06' W 080°10'0 0.0
2018-Jul-01 23:51N 26°06' W 080°10'0 0.0
2018-Jul-01 23:21N 26°06' W 080°10'0 0.0
2018-Jul-01 22:54N 26°06' W 080°10'0 0.0
2018-Jul-01 22:24N 26°06' W 080°10'0 0.0
2018-Jul-01 21:54N 26°06' W 080°10'0 0.0
2018-Jul-01 21:24N 26°06' W 080°10'0 0.0
2018-Jul-01 20:54N 26°06' W 080°10'0 0.0
2018-Jul-01 20:21N 26°06' W 080°10'0 0.0
2018-Jul-01 19:54N 26°06' W 080°10'0 0.0
2018-Jul-01 19:27N 26°06' W 080°10'0 0.0
2018-Jul-01 18:54N 26°06' W 080°10'0 0.0
2018-Jul-01 18:27N 26°06' W 080°10'0 0.0
2018-Jul-01 17:57N 26°06' W 080°10'0 0.0
2018-Jul-01 17:24N 26°06' W 080°10'0 0.0
2018-Jul-01 16:57N 26°06' W 080°10'0 0.0
2018-Jul-01 16:27N 26°06' W 080°10'0 0.0
2018-Jul-01 16:00N 26°06' W 080°10'0 0.0
2018-Jul-01 15:30N 26°06' W 080°10'0 0.0
2018-Jul-01 15:00N 26°06' W 080°10'0 0.0
2018-Jul-01 14:30N 26°06' W 080°10'0 0.0
2018-Jul-01 14:00N 26°06' W 080°10'0 0.0
2018-Jul-01 13:30N 26°06' W 080°10'0 0.0
2018-Jul-01 13:00N 26°06' W 080°10'0 0.0
2018-Jul-01 12:30N 26°06' W 080°10'0 0.0
2018-Jul-01 12:00N 26°06' W 080°10'0 0.0
2018-Jul-01 11:30N 26°06' W 080°10'0 0.0
2018-Jul-01 11:00N 26°06' W 080°10'0 0.0
2018-Jul-01 10:30N 26°06' W 080°10'0 0.0
2018-Jul-01 10:00N 26°06' W 080°10'0 0.0
2018-Jul-01 09:21N 26°06' W 080°10'0 0.0
2018-Jul-01 08:51N 26°06' W 080°10'0 0.0
2018-Jul-01 08:21N 26°06' W 080°10'0 0.0
2018-Jul-01 07:54N 26°06' W 080°10'0 0.0
2018-Jul-01 07:24N 26°06' W 080°10'0 0.0
2018-Jul-01 06:51N 26°06' W 080°10'0 0.0
2018-Jul-01 06:24N 26°06' W 080°10'0 0.0
2018-Jul-01 05:54N 26°06' W 080°10'0 0.0
2018-Jul-01 05:24N 26°06' W 080°10'0 0.0
2018-Jul-01 04:57N 26°06' W 080°10'0 0.0
2018-Jul-01 04:27N 26°06' W 080°10'0 0.0
2018-Jul-01 03:57N 26°06' W 080°10'0 0.0
2018-Jul-01 03:27N 26°06' W 080°10'0 0.0
2018-Jul-01 02:57N 26°06' W 080°10'0 0.0
2018-Jul-01 02:27N 26°06' W 080°10'0 0.0
2018-Jul-01 01:57N 26°06' W 080°10'0 0.0
2018-Jul-01 01:27N 26°06' W 080°10'0 0.0
2018-Jul-01 01:00N 26°06' W 080°10'0 0.0
2018-Jul-01 00:30N 26°06' W 080°10'  
Track history (hours):
 
Tides and Currents Weather Stations Pressure Air Temp Water Temp Dewpoint Dewpoint Depression Visibility Wind Speed Wind Dir Waves Ship Positions

Keiki Kai

Last reported at 2018-Jul-11 00:18 UTC. Time now 2018-Jul-22 03:06 UTC.
Position N 25°60' W 079°47'.
Warning: this ship's position is 11 days out of date.

Length 30 m; draft 1.8 m.

Type: Pleasure craft. MMSI: 339354000.

Date/timePositionNaut miles runAvg speedWind from/ knotsBaromVisibWave heightAir tempDewpointWater temp
2018-Jul-11 00:18N 25°60' W 079°47'3 9.8
2018-Jul-11 00:00N 26°01' W 079°50'5 9.8
2018-Jul-10 23:30N 26°03' W 079°56'5 9.8
2018-Jul-10 23:00N 26°05' W 080°00'510.1
2018-Jul-10 22:30N 26°06' W 080°06'1 2.8
2018-Jul-10 22:00N 26°06' W 080°07'1 1.4
2018-Jul-10 21:30N 26°07' W 080°07'0 0.0
2018-Jul-10 21:00N 26°07' W 080°07'0 0.0
2018-Jul-10 20:30N 26°07' W 080°07'0 0.0
2018-Jul-10 20:00N 26°07' W 080°07'0 0.0
2018-Jul-10 19:30N 26°07' W 080°07'0 0.0
2018-Jul-10 19:00N 26°07' W 080°07'0 0.0
2018-Jul-10 18:30N 26°07' W 080°07'0 0.0
2018-Jul-10 18:00N 26°07' W 080°07'0 0.0
2018-Jul-10 17:30N 26°07' W 080°07'0 0.0
2018-Jul-10 17:00N 26°07' W 080°07'0 0.0
2018-Jul-10 16:30N 26°07' W 080°07'0 0.0
2018-Jul-10 16:00N 26°07' W 080°07'0 0.2
2018-Jul-10 15:30N 26°07' W 080°07'2 3.4
2018-Jul-10 15:01N 26°05' W 080°05'0 0.9
2018-Jul-10 14:30N 26°06' W 080°05'2 3.1
2018-Jul-10 14:00N 26°04' W 080°05'3 6.2
2018-Jul-10 13:30N 26°06' W 080°07'1 2.7
2018-Jul-10 13:00N 26°07' W 080°09'1 1.9
2018-Jul-10 12:30N 26°07' W 080°09'1 1.5
2018-Jul-10 11:58N 26°06' W 080°10'0 0.0
2018-Jul-10 11:28N 26°06' W 080°10'0 0.0
2018-Jul-10 10:58N 26°06' W 080°10'0 0.0
2018-Jul-10 10:28N 26°06' W 080°10'0 0.0
2018-Jul-10 09:46N 26°06' W 080°10'0 0.0
2018-Jul-10 09:28N 26°06' W 080°10'0 0.0
2018-Jul-10 08:49N 26°06' W 080°10'0 0.0
2018-Jul-10 08:28N 26°06' W 080°10'0 0.0
2018-Jul-10 07:58N 26°06' W 080°10'0 0.0
2018-Jul-10 07:28N 26°06' W 080°10'0 0.0
2018-Jul-10 06:49N 26°06' W 080°10'0 0.0
2018-Jul-10 06:19N 26°06' W 080°10'0 0.0
2018-Jul-10 05:52N 26°06' W 080°10'0 0.0
2018-Jul-10 05:19N 26°06' W 080°10'0 0.0
2018-Jul-10 04:52N 26°06' W 080°10'0 0.0
2018-Jul-10 04:22N 26°06' W 080°10'0 0.0
2018-Jul-10 03:55N 26°06' W 080°10'0 0.0
2018-Jul-10 03:25N 26°06' W 080°10'0 0.0
2018-Jul-10 02:55N 26°06' W 080°10'0 0.0
2018-Jul-10 02:25N 26°06' W 080°10'0 0.0
2018-Jul-10 01:55N 26°06' W 080°10'0 0.0
2018-Jul-10 01:25N 26°06' W 080°10'0 0.0
2018-Jul-10 00:55N 26°06' W 080°10'0 0.0
2018-Jul-10 00:22N 26°06' W 080°10'0 0.0
2018-Jul-09 23:58N 26°06' W 080°10'0 0.0
2018-Jul-09 23:28N 26°06' W 080°10'0 0.0
2018-Jul-09 22:58N 26°06' W 080°10'0 0.0
2018-Jul-09 22:28N 26°06' W 080°10'0 0.0
2018-Jul-09 21:58N 26°06' W 080°10'0 0.0
2018-Jul-09 21:28N 26°06' W 080°10'0 0.0
2018-Jul-09 20:58N 26°06' W 080°10'0 0.0
2018-Jul-09 20:28N 26°06' W 080°10'0 0.0
2018-Jul-09 19:58N 26°06' W 080°10'0 0.0
2018-Jul-09 19:28N 26°06' W 080°10'0 0.0
2018-Jul-09 18:58N 26°06' W 080°10'0 0.0
2018-Jul-09 18:16N 26°06' W 080°10'0 0.0
2018-Jul-09 17:58N 26°06' W 080°10'0 0.0
2018-Jul-09 17:28N 26°06' W 080°10'0 0.0
2018-Jul-09 16:49N 26°06' W 080°10'0 0.0
2018-Jul-09 16:19N 26°06' W 080°10'0 0.0
2018-Jul-09 15:49N 26°06' W 080°10'0 0.0
2018-Jul-09 15:22N 26°06' W 080°10'0 0.0
2018-Jul-09 14:52N 26°06' W 080°10'0 0.0
2018-Jul-09 14:22N 26°06' W 080°10'0 0.0
2018-Jul-09 13:52N 26°06' W 080°10'0 0.0
2018-Jul-09 13:22N 26°06' W 080°10'  
2018-Jul-06 22:21N 26°06' W 080°10'0 0.0
2018-Jul-06 21:54N 26°06' W 080°10'0 0.0
2018-Jul-06 21:24N 26°06' W 080°10'0 0.0
2018-Jul-06 20:54N 26°06' W 080°10'0 0.0
2018-Jul-06 20:24N 26°06' W 080°10'0 0.0
2018-Jul-06 19:54N 26°06' W 080°10'0 0.0
2018-Jul-06 19:27N 26°06' W 080°10'0 0.0
2018-Jul-06 18:57N 26°06' W 080°10'0 0.0
2018-Jul-06 18:27N 26°06' W 080°10'0 0.0
2018-Jul-06 17:57N 26°06' W 080°10'0 0.0
2018-Jul-06 17:24N 26°06' W 080°10'0 0.0
2018-Jul-06 16:57N 26°06' W 080°10'0 0.0
2018-Jul-06 16:30N 26°06' W 080°10'0 0.0
2018-Jul-06 15:57N 26°06' W 080°10'0 0.0
2018-Jul-06 15:30N 26°06' W 080°10'0 0.0
2018-Jul-06 15:00N 26°06' W 080°10'0 0.0
2018-Jul-06 14:27N 26°06' W 080°10'0 0.0
2018-Jul-06 14:00N 26°06' W 080°10'0 0.0
2018-Jul-06 13:30N 26°06' W 080°10'0 0.0
2018-Jul-06 13:00N 26°06' W 080°10'0 0.0
2018-Jul-06 12:30N 26°06' W 080°10'0 0.0
2018-Jul-06 11:48N 26°06' W 080°10'0 0.0
2018-Jul-06 11:30N 26°06' W 080°10'0 0.0
2018-Jul-06 11:00N 26°06' W 080°10'0 0.0
2018-Jul-06 10:30N 26°06' W 080°10'0 0.0
2018-Jul-06 10:00N 26°06' W 080°10'0 0.0
2018-Jul-06 09:30N 26°06' W 080°10'0 0.0
2018-Jul-06 09:00N 26°06' W 080°10'0 0.0
2018-Jul-06 08:21N 26°06' W 080°10'0 0.0
2018-Jul-06 07:54N 26°06' W 080°10'0 0.0
2018-Jul-06 07:24N 26°06' W 080°10'0 0.0
2018-Jul-06 06:54N 26°06' W 080°10'0 0.0
2018-Jul-06 06:24N 26°06' W 080°10'0 0.0
2018-Jul-06 05:54N 26°06' W 080°10'0 0.0
2018-Jul-06 05:24N 26°06' W 080°10'0 0.0
2018-Jul-06 04:51N 26°06' W 080°10'0 0.0
2018-Jul-06 04:27N 26°06' W 080°10'0 0.0
2018-Jul-06 03:57N 26°06' W 080°10'0 0.0
2018-Jul-06 03:24N 26°06' W 080°10'0 0.0
2018-Jul-06 02:57N 26°06' W 080°10'0 0.0
2018-Jul-06 02:27N 26°06' W 080°10'0 0.0
2018-Jul-06 01:54N 26°06' W 080°10'0 0.0
2018-Jul-06 01:27N 26°06' W 080°10'0 0.0
2018-Jul-06 01:00N 26°06' W 080°10'0 0.0
2018-Jul-06 00:27N 26°06' W 080°10'0 0.0
2018-Jul-06 00:00N 26°06' W 080°10'0 0.0
2018-Jul-05 23:30N 26°06' W 080°10'0 0.0
2018-Jul-05 23:00N 26°06' W 080°10'0 0.0
2018-Jul-05 22:30N 26°06' W 080°10'0 0.0
2018-Jul-05 22:00N 26°06' W 080°10'0 0.0
2018-Jul-05 21:30N 26°06' W 080°10'0 0.0
2018-Jul-05 21:00N 26°06' W 080°10'0 0.0
2018-Jul-05 20:30N 26°06' W 080°10'0 0.0
2018-Jul-05 20:00N 26°06' W 080°10'0 0.0
2018-Jul-05 19:30N 26°06' W 080°10'0 0.0
2018-Jul-05 19:00N 26°06' W 080°10'0 0.0
2018-Jul-05 18:30N 26°06' W 080°10'0 0.0
2018-Jul-05 18:00N 26°06' W 080°10'0 0.0
2018-Jul-05 17:30N 26°06' W 080°10'0 0.0
2018-Jul-05 16:51N 26°06' W 080°10'0 0.0
2018-Jul-05 16:21N 26°06' W 080°10'0 0.0
2018-Jul-05 15:54N 26°06' W 080°10'0 0.0
2018-Jul-05 15:24N 26°06' W 080°10'0 0.0
2018-Jul-05 14:54N 26°06' W 080°10'0 0.0
2018-Jul-05 14:24N 26°06' W 080°10'0 0.0
2018-Jul-05 13:24N 26°06' W 080°10'0 0.0
2018-Jul-05 12:54N 26°06' W 080°10'0 0.0
2018-Jul-05 12:27N 26°06' W 080°10'0 0.0
2018-Jul-05 11:57N 26°06' W 080°10'0 0.0
2018-Jul-05 11:27N 26°06' W 080°10'0 0.0
2018-Jul-05 11:00N 26°06' W 080°10'0 0.0
2018-Jul-05 10:27N 26°06' W 080°10'0 0.0
2018-Jul-05 10:00N 26°06' W 080°10'0 0.0
2018-Jul-05 09:30N 26°06' W 080°10'0 0.0
2018-Jul-05 09:00N 26°06' W 080°10'0 0.0
2018-Jul-05 08:30N 26°06' W 080°10'0 0.0
2018-Jul-05 07:45N 26°06' W 080°10'0 0.0
2018-Jul-05 07:30N 26°06' W 080°10'0 0.0
2018-Jul-05 07:00N 26°06' W 080°10'0 0.0
2018-Jul-05 06:30N 26°06' W 080°10'0 0.0
2018-Jul-05 06:00N 26°06' W 080°10'0 0.0
2018-Jul-05 05:30N 26°06' W 080°10'0 0.0
2018-Jul-05 04:48N 26°06' W 080°10'0 0.0
2018-Jul-05 04:30N 26°06' W 080°10'0 0.0
2018-Jul-05 04:00N 26°06' W 080°10'0 0.0
2018-Jul-05 03:21N 26°06' W 080°10'0 0.0
2018-Jul-05 03:00N 26°06' W 080°10'0 0.0
2018-Jul-05 02:21N 26°06' W 080°10'0 0.0
2018-Jul-05 01:48N 26°06' W 080°10'0 0.0
2018-Jul-05 01:24N 26°06' W 080°10'0 0.0
2018-Jul-05 00:54N 26°06' W 080°10'0 0.0
2018-Jul-05 00:21N 26°06' W 080°10'0 0.0
2018-Jul-04 23:39N 26°06' W 080°10'0 0.0
2018-Jul-04 23:24N 26°06' W 080°10'0 0.0
2018-Jul-04 22:54N 26°06' W 080°10'0 0.0
2018-Jul-04 22:27N 26°06' W 080°10'0 0.0
2018-Jul-04 21:57N 26°06' W 080°10'0 0.0
2018-Jul-04 21:27N 26°06' W 080°10'0 0.0
2018-Jul-04 20:57N 26°06' W 080°10'0 0.0
2018-Jul-04 20:27N 26°06' W 080°10'0 0.0
2018-Jul-04 19:57N 26°06' W 080°10'0 0.0
2018-Jul-04 19:30N 26°06' W 080°10'0 0.0
2018-Jul-04 19:00N 26°06' W 080°10'0 0.0
2018-Jul-04 18:30N 26°06' W 080°10'0 0.0
2018-Jul-04 18:00N 26°06' W 080°10'0 0.0
2018-Jul-04 17:30N 26°06' W 080°10'0 0.0
2018-Jul-04 17:00N 26°06' W 080°10'0 0.0
2018-Jul-04 16:30N 26°06' W 080°10'0 0.0
2018-Jul-04 16:00N 26°06' W 080°10'0 0.0
2018-Jul-04 15:30N 26°06' W 080°10'0 0.0
2018-Jul-04 15:00N 26°06' W 080°10'0 0.0
2018-Jul-04 14:30N 26°06' W 080°10'0 0.0
2018-Jul-04 14:00N 26°06' W 080°10'0 0.0
2018-Jul-04 13:30N 26°06' W 080°10'0 0.0
2018-Jul-04 13:00N 26°06' W 080°10'0 0.0
2018-Jul-04 12:30N 26°06' W 080°10'0 0.0
2018-Jul-04 12:00N 26°06' W 080°10'0 0.0
2018-Jul-04 11:30N 26°06' W 080°10'0 0.0
2018-Jul-04 10:51N 26°06' W 080°10'0 0.0
2018-Jul-04 10:21N 26°06' W 080°10'0 0.0
2018-Jul-04 09:54N 26°06' W 080°10'0 0.0
2018-Jul-04 09:24N 26°06' W 080°10'0 0.0
2018-Jul-04 08:51N 26°06' W 080°10'0 0.0
2018-Jul-04 08:24N 26°06' W 080°10'0 0.0
2018-Jul-04 07:54N 26°06' W 080°10'0 0.0
2018-Jul-04 07:27N 26°06' W 080°10'0 0.0
2018-Jul-04 06:57N 26°06' W 080°10'0 0.0
2018-Jul-04 06:27N 26°06' W 080°10'0 0.0
2018-Jul-04 05:57N 26°06' W 080°10'0 0.0
2018-Jul-04 05:27N 26°06' W 080°10'0 0.0
2018-Jul-04 05:00N 26°06' W 080°10'0 0.0
2018-Jul-04 04:24N 26°06' W 080°10'0 0.0
2018-Jul-04 03:57N 26°06' W 080°10'0 0.0
2018-Jul-04 03:30N 26°06' W 080°10'0 0.0
2018-Jul-04 03:00N 26°06' W 080°10'0 0.0
2018-Jul-04 02:30N 26°06' W 080°10'0 0.0
2018-Jul-04 02:00N 26°06' W 080°10'0 0.0
2018-Jul-04 01:30N 26°06' W 080°10'0 0.0
2018-Jul-04 00:57N 26°06' W 080°10'0 0.0
2018-Jul-04 00:30N 26°06' W 080°10'0 0.0
2018-Jul-04 00:00N 26°06' W 080°10'0 0.0
2018-Jul-03 23:30N 26°06' W 080°10'0 0.0
2018-Jul-03 23:00N 26°06' W 080°10'0 0.0
2018-Jul-03 22:30N 26°06' W 080°10'0 0.0
2018-Jul-03 22:00N 26°06' W 080°10'0 0.0
2018-Jul-03 21:30N 26°06' W 080°10'0 0.0
2018-Jul-03 21:00N 26°06' W 080°10'0 0.0
2018-Jul-03 20:21N 26°06' W 080°10'0 0.0
2018-Jul-03 19:51N 26°06' W 080°10'0 0.0
2018-Jul-03 19:21N 26°06' W 080°10'0 0.0
2018-Jul-03 18:54N 26°06' W 080°10'0 0.0
2018-Jul-03 18:24N 26°06' W 080°10'0 0.0
2018-Jul-03 17:54N 26°06' W 080°10'0 0.0
2018-Jul-03 17:24N 26°06' W 080°10'0 0.0
2018-Jul-03 16:54N 26°06' W 080°10'0 0.0
2018-Jul-03 16:24N 26°06' W 080°10'0 0.0
2018-Jul-03 15:42N 26°06' W 080°10'0 0.0
2018-Jul-03 15:27N 26°06' W 080°10'0 0.0
2018-Jul-03 14:57N 26°06' W 080°10'0 0.0
2018-Jul-03 14:27N 26°06' W 080°10'0 0.0
2018-Jul-03 14:00N 26°06' W 080°10'0 0.0
2018-Jul-03 13:30N 26°06' W 080°10'0 0.0
2018-Jul-03 13:00N 26°06' W 080°10'0 0.0
2018-Jul-03 12:30N 26°06' W 080°10'0 0.0
2018-Jul-03 12:00N 26°06' W 080°10'0 0.0
2018-Jul-03 11:30N 26°06' W 080°10'0 0.0
2018-Jul-03 10:57N 26°06' W 080°10'0 0.0
2018-Jul-03 10:30N 26°06' W 080°10'0 0.0
2018-Jul-03 10:00N 26°06' W 080°10'0 0.0
2018-Jul-03 09:30N 26°06' W 080°10'0 0.0
2018-Jul-03 09:00N 26°06' W 080°10'0 0.0
2018-Jul-03 08:30N 26°06' W 080°10'0 0.0
2018-Jul-03 08:00N 26°06' W 080°10'0 0.0
2018-Jul-03 07:30N 26°06' W 080°10'0 0.0
2018-Jul-03 07:00N 26°06' W 080°10'0 0.0
2018-Jul-03 06:30N 26°06' W 080°10'0 0.0
2018-Jul-03 06:00N 26°06' W 080°10'0 0.0
2018-Jul-03 05:21N 26°06' W 080°10'0 0.0
2018-Jul-03 04:54N 26°06' W 080°10'0 0.0
2018-Jul-03 04:24N 26°06' W 080°10'0 0.0
2018-Jul-03 03:54N 26°06' W 080°10'0 0.0
2018-Jul-03 03:24N 26°06' W 080°10'0 0.0
2018-Jul-03 02:57N 26°06' W 080°10'0 0.0
2018-Jul-03 02:24N 26°06' W 080°10'0 0.0
2018-Jul-03 01:54N 26°06' W 080°10'0 0.0
2018-Jul-03 01:24N 26°06' W 080°10'0 0.0
2018-Jul-03 00:57N 26°06' W 080°10'0 0.0
2018-Jul-03 00:27N 26°06' W 080°10'0 0.0
2018-Jul-02 23:57N 26°06' W 080°10'0 0.0
2018-Jul-02 23:27N 26°06' W 080°10'0 0.0
2018-Jul-02 22:54N 26°06' W 080°10'0 0.0
2018-Jul-02 22:30N 26°06' W 080°10'0 0.0
2018-Jul-02 21:57N 26°06' W 080°10'0 0.0
2018-Jul-02 21:30N 26°06' W 080°10'0 0.0
2018-Jul-02 21:00N 26°06' W 080°10'0 0.0
2018-Jul-02 20:30N 26°06' W 080°10'0 0.0
2018-Jul-02 20:00N 26°06' W 080°10'0 0.0
2018-Jul-02 19:30N 26°06' W 080°10'0 0.0
2018-Jul-02 19:00N 26°06' W 080°10'0 0.0
2018-Jul-02 18:30N 26°06' W 080°10'0 0.0
2018-Jul-02 18:00N 26°06' W 080°10'0 0.0
2018-Jul-02 17:30N 26°06' W 080°10'0 0.0
2018-Jul-02 17:00N 26°06' W 080°10'0 0.0
2018-Jul-02 16:30N 26°06' W 080°10'0 0.0
2018-Jul-02 15:48N 26°06' W 080°10'0 0.0
2018-Jul-02 15:21N 26°06' W 080°10'0 0.0
2018-Jul-02 14:51N 26°06' W 080°10'0 0.0
2018-Jul-02 14:21N 26°06' W 080°10'0 0.0
2018-Jul-02 13:54N 26°06' W 080°10'0 0.0
2018-Jul-02 13:24N 26°06' W 080°10'0 0.0
2018-Jul-02 12:54N 26°06' W 080°10'0 0.0
2018-Jul-02 12:24N 26°06' W 080°10'0 0.0
2018-Jul-02 11:51N 26°06' W 080°10'0 0.0
2018-Jul-02 11:24N 26°06' W 080°10'0 0.0
2018-Jul-02 10:57N 26°06' W 080°10'0 0.0
2018-Jul-02 10:24N 26°06' W 080°10'0 0.0
2018-Jul-02 09:57N 26°06' W 080°10'0 0.0
2018-Jul-02 09:27N 26°06' W 080°10'0 0.0
2018-Jul-02 08:57N 26°06' W 080°10'0 0.0
2018-Jul-02 08:30N 26°06' W 080°10'0 0.0
2018-Jul-02 08:00N 26°06' W 080°10'0 0.0
2018-Jul-02 07:30N 26°06' W 080°10'0 0.0
2018-Jul-02 07:00N 26°06' W 080°10'0 0.0
2018-Jul-02 06:30N 26°06' W 080°10'0 0.0
2018-Jul-02 06:00N 26°06' W 080°10'0 0.0
2018-Jul-02 05:27N 26°06' W 080°10'0 0.0
2018-Jul-02 05:00N 26°06' W 080°10'0 0.0
2018-Jul-02 04:30N 26°06' W 080°10'0 0.0
2018-Jul-02 04:00N 26°06' W 080°10'0 0.0
2018-Jul-02 03:30N 26°06' W 080°10'0 0.0
2018-Jul-02 03:00N 26°06' W 080°10'0 0.0
2018-Jul-02 02:30N 26°06' W 080°10'0 0.0
2018-Jul-02 01:51N 26°06' W 080°10'0 0.0
2018-Jul-02 01:30N 26°06' W 080°10'0 0.0
2018-Jul-02 01:00N 26°06' W 080°10'0 0.0
2018-Jul-02 00:30N 26°06' W 080°10'0 0.0
2018-Jul-01 23:51N 26°06' W 080°10'0 0.0
2018-Jul-01 23:21N 26°06' W 080°10'0 0.0
2018-Jul-01 22:54N 26°06' W 080°10'0 0.0
2018-Jul-01 22:24N 26°06' W 080°10'0 0.0
2018-Jul-01 21:54N 26°06' W 080°10'0 0.0
2018-Jul-01 21:24N 26°06' W 080°10'0 0.0
2018-Jul-01 20:54N 26°06' W 080°10'0 0.0
2018-Jul-01 20:21N 26°06' W 080°10'0 0.0
2018-Jul-01 19:54N 26°06' W 080°10'0 0.0
2018-Jul-01 19:27N 26°06' W 080°10'0 0.0
2018-Jul-01 18:54N 26°06' W 080°10'0 0.0
2018-Jul-01 18:27N 26°06' W 080°10'0 0.0
2018-Jul-01 17:57N 26°06' W 080°10'0 0.0
2018-Jul-01 17:24N 26°06' W 080°10'0 0.0
2018-Jul-01 16:57N 26°06' W 080°10'0 0.0
2018-Jul-01 16:27N 26°06' W 080°10'0 0.0
2018-Jul-01 16:00N 26°06' W 080°10'0 0.0
2018-Jul-01 15:30N 26°06' W 080°10'0 0.0
2018-Jul-01 15:00N 26°06' W 080°10'0 0.0
2018-Jul-01 14:30N 26°06' W 080°10'0 0.0
2018-Jul-01 14:00N 26°06' W 080°10'0 0.0
2018-Jul-01 13:30N 26°06' W 080°10'0 0.0
2018-Jul-01 13:00N 26°06' W 080°10'0 0.0
2018-Jul-01 12:30N 26°06' W 080°10'0 0.0
2018-Jul-01 12:00N 26°06' W 080°10'0 0.0
2018-Jul-01 11:30N 26°06' W 080°10'0 0.0
2018-Jul-01 11:00N 26°06' W 080°10'0 0.0
2018-Jul-01 10:30N 26°06' W 080°10'0 0.0
2018-Jul-01 10:00N 26°06' W 080°10'0 0.0
2018-Jul-01 09:21N 26°06' W 080°10'0 0.0
2018-Jul-01 08:51N 26°06' W 080°10'0 0.0
2018-Jul-01 08:21N 26°06' W 080°10'0 0.0
2018-Jul-01 07:54N 26°06' W 080°10'0 0.0
2018-Jul-01 07:24N 26°06' W 080°10'0 0.0
2018-Jul-01 06:51N 26°06' W 080°10'0 0.0
2018-Jul-01 06:24N 26°06' W 080°10'0 0.0
2018-Jul-01 05:54N 26°06' W 080°10'0 0.0
2018-Jul-01 05:24N 26°06' W 080°10'0 0.0
2018-Jul-01 04:57N 26°06' W 080°10'0 0.0
2018-Jul-01 04:27N 26°06' W 080°10'0 0.0
2018-Jul-01 03:57N 26°06' W 080°10'0 0.0
2018-Jul-01 03:27N 26°06' W 080°10'0 0.0
2018-Jul-01 02:57N 26°06' W 080°10'0 0.0
2018-Jul-01 02:27N 26°06' W 080°10'0 0.0
2018-Jul-01 01:57N 26°06' W 080°10'0 0.0
2018-Jul-01 01:27N 26°06' W 080°10'0 0.0
2018-Jul-01 01:00N 26°06' W 080°10'0 0.0
2018-Jul-01 00:30N 26°06' W 080°10'  

Dump ship's entire track history